createdAt,value
2022-10-05T00:02:24.721Z,16.20
2022-10-05T00:05:32.151Z,16.13
2022-10-05T00:08:33.563Z,16.22
2022-10-05T00:11:30.194Z,16.33
2022-10-05T00:14:32.442Z,16.30
2022-10-05T00:17:29.603Z,16.26
2022-10-05T00:20:26.450Z,16.17
2022-10-05T00:23:25.584Z,16.29
2022-10-05T00:26:24.962Z,16.16
2022-10-05T00:29:22.855Z,16.07
2022-10-05T00:32:21.091Z,15.97
2022-10-05T00:35:18.855Z,15.64
2022-10-05T00:38:16.248Z,15.58
2022-10-05T00:41:19.568Z,15.80
2022-10-05T00:44:41.121Z,15.90
2022-10-05T00:48:05.398Z,15.55
2022-10-05T00:51:27.356Z,15.37
2022-10-05T00:54:30.297Z,15.53
2022-10-05T00:57:34.088Z,15.40
2022-10-05T01:00:31.090Z,15.19
2022-10-05T01:03:30.884Z,15.51
2022-10-05T01:06:54.213Z,15.85
2022-10-05T01:10:06.881Z,15.99
2022-10-05T01:13:09.854Z,16.00
2022-10-05T01:16:07.145Z,16.30
2022-10-05T01:19:19.809Z,16.42
2022-10-05T01:22:45.268Z,16.24
2022-10-05T01:25:51.542Z,16.12
2022-10-05T01:28:52.686Z,16.15
2022-10-05T01:32:00.257Z,16.20
2022-10-05T01:35:00.233Z,16.33
2022-10-05T01:38:17.186Z,16.39
2022-10-05T01:41:29.991Z,16.13
2022-10-05T01:44:44.706Z,16.04
2022-10-05T01:47:46.099Z,15.98
2022-10-05T01:50:55.064Z,15.96
2022-10-05T01:53:55.618Z,15.86
2022-10-05T01:57:01.967Z,15.69
2022-10-05T02:00:07.974Z,15.51
2022-10-05T02:03:20.831Z,15.46
2022-10-05T02:06:23.921Z,15.44
2022-10-05T02:09:29.006Z,15.52
2022-10-05T02:12:29.570Z,15.78
2022-10-05T02:15:32.689Z,15.44
2022-10-05T02:18:51.084Z,15.39
2022-10-05T02:21:54.126Z,15.51
2022-10-05T02:24:54.032Z,15.04
2022-10-05T02:28:11.516Z,15.06
2022-10-05T02:31:18.496Z,15.35
2022-10-05T02:34:25.977Z,15.22
2022-10-05T02:37:57.484Z,15.09
2022-10-05T02:41:23.185Z,15.04
2022-10-05T02:44:26.486Z,15.22
2022-10-05T02:47:46.610Z,14.93
2022-10-05T02:51:04.383Z,15.04
2022-10-05T02:54:11.194Z,14.88
2022-10-05T02:57:15.764Z,14.88
2022-10-05T03:00:17.477Z,14.84
2022-10-05T03:03:25.287Z,14.81
2022-10-05T03:06:26.725Z,14.76
2022-10-05T03:09:25.606Z,14.71
2022-10-05T03:12:49.136Z,14.78
2022-10-05T03:15:48.161Z,14.77
2022-10-05T03:18:59.295Z,14.83
2022-10-05T03:22:02.506Z,15.10
2022-10-05T03:25:12.548Z,15.07
2022-10-05T03:28:31.163Z,15.01
2022-10-05T03:32:04.435Z,15.08
2022-10-05T03:35:14.911Z,14.93
2022-10-05T03:38:27.628Z,14.78
2022-10-05T03:42:05.228Z,14.76
2022-10-05T03:45:09.451Z,14.89
2022-10-05T03:48:11.853Z,14.97
2022-10-05T03:51:20.438Z,15.07
2022-10-05T03:54:29.615Z,15.06
2022-10-05T03:57:27.701Z,15.00
2022-10-05T04:00:27.730Z,14.94
2022-10-05T04:03:34.060Z,14.80
2022-10-05T04:06:34.563Z,14.80
2022-10-05T04:09:43.344Z,14.79
2022-10-05T04:12:41.716Z,14.73
2022-10-05T04:15:44.077Z,14.64
2022-10-05T04:19:01.579Z,14.64
2022-10-05T04:22:07.856Z,14.70
2022-10-05T04:25:26.664Z,14.88
2022-10-05T04:28:50.781Z,14.91
2022-10-05T04:31:56.154Z,14.75
2022-10-05T04:35:15.388Z,14.65
2022-10-05T04:38:21.365Z,14.75
2022-10-05T04:41:31.061Z,14.80
2022-10-05T04:44:38.526Z,14.61
2022-10-05T04:47:52.682Z,14.66
2022-10-05T04:50:50.174Z,14.66
2022-10-05T04:53:55.322Z,14.99
2022-10-05T04:56:59.149Z,14.85
2022-10-05T05:00:21.437Z,15.02
2022-10-05T05:03:57.735Z,14.92
2022-10-05T05:07:02.686Z,14.99
2022-10-05T05:10:02.488Z,15.19
2022-10-05T05:13:48.611Z,15.48
2022-10-05T05:16:47.847Z,15.47
2022-10-05T05:20:27.047Z,15.64
2022-10-05T05:23:48.224Z,15.75
2022-10-05T05:27:09.414Z,15.54
2022-10-05T05:30:14.054Z,15.36
2022-10-05T05:33:15.660Z,15.47
2022-10-05T05:36:34.858Z,15.44
2022-10-05T05:39:54.731Z,15.54
2022-10-05T05:43:09.869Z,15.48
2022-10-05T05:47:04.418Z,15.33
2022-10-05T05:50:21.492Z,15.28
2022-10-05T05:53:24.122Z,15.03
2022-10-05T05:56:27.123Z,15.08
2022-10-05T05:59:39.770Z,15.15
2022-10-05T06:02:48.262Z,15.20
2022-10-05T06:05:49.649Z,15.08
2022-10-05T06:08:56.275Z,15.00
2022-10-05T06:12:05.147Z,15.35
2022-10-05T06:15:30.976Z,15.38
2022-10-05T06:18:28.446Z,15.19
2022-10-05T06:21:34.568Z,15.22
2022-10-05T06:24:46.130Z,15.27
2022-10-05T06:28:12.685Z,15.57
2022-10-05T06:31:45.661Z,15.74
2022-10-05T06:34:58.010Z,15.57
2022-10-05T06:38:09.379Z,15.66
2022-10-05T06:41:56.326Z,15.78
2022-10-05T06:45:13.512Z,15.94
2022-10-05T06:48:50.890Z,15.80
2022-10-05T06:52:19.418Z,15.66
2022-10-05T06:55:37.860Z,15.73
2022-10-05T06:58:44.845Z,15.99
2022-10-05T07:01:57.394Z,16.15
2022-10-05T07:05:37.284Z,15.73
2022-10-05T07:09:14.209Z,15.65
2022-10-05T07:12:43.613Z,15.75
2022-10-05T07:16:18.115Z,15.95
2022-10-05T07:19:34.202Z,15.92
2022-10-05T07:22:50.234Z,15.70
2022-10-05T07:26:02.558Z,15.85
2022-10-05T07:28:59.588Z,15.85
2022-10-05T07:31:59.114Z,15.91
2022-10-05T07:35:34.416Z,15.95
2022-10-05T07:38:57.397Z,16.03
2022-10-05T07:42:18.977Z,16.11
2022-10-05T07:45:20.186Z,16.05
2022-10-05T07:48:42.295Z,16.07
2022-10-05T07:51:45.255Z,16.11
2022-10-05T07:55:03.488Z,16.27
2022-10-05T07:58:16.961Z,16.17
2022-10-05T08:01:35.206Z,16.11
2022-10-05T08:05:28.950Z,16.08
2022-10-05T08:08:32.437Z,16.21
2022-10-05T08:11:57.750Z,16.25
2022-10-05T08:15:00.521Z,16.39
2022-10-05T08:18:34.380Z,16.26
2022-10-05T08:21:34.475Z,16.02
2022-10-05T08:24:57.915Z,16.02
2022-10-05T08:28:05.127Z,16.14
2022-10-05T08:31:29.990Z,16.06
2022-10-05T08:34:34.821Z,16.18
2022-10-05T08:37:37.614Z,16.20
2022-10-05T08:40:49.920Z,16.33
2022-10-05T08:44:02.786Z,16.45
2022-10-05T08:47:18.237Z,16.51
2022-10-05T08:50:37.826Z,16.49
2022-10-05T08:54:04.044Z,16.56
2022-10-05T08:57:27.890Z,16.55
2022-10-05T09:00:28.267Z,16.47
2022-10-05T09:04:03.613Z,16.67
2022-10-05T09:07:42.782Z,16.66
2022-10-05T09:11:03.931Z,16.63
2022-10-05T09:14:15.824Z,16.69
2022-10-05T09:17:39.301Z,16.66
2022-10-05T09:20:54.261Z,16.74
2022-10-05T09:24:04.485Z,16.70
2022-10-05T09:27:10.655Z,16.76
2022-10-05T09:30:34.791Z,17.04
2022-10-05T09:33:53.213Z,17.23
2022-10-05T09:37:13.862Z,17.18
2022-10-05T09:40:47.466Z,17.53
2022-10-05T09:44:22.081Z,17.46
2022-10-05T09:47:45.281Z,17.63
2022-10-05T09:51:01.357Z,17.76
2022-10-05T09:53:58.732Z,17.77
2022-10-05T09:57:11.947Z,17.65
2022-10-05T10:00:28.352Z,17.76
2022-10-05T10:03:49.178Z,17.45
2022-10-05T10:06:55.317Z,17.54
2022-10-05T10:10:13.923Z,17.49
2022-10-05T10:13:32.254Z,17.48
2022-10-05T10:16:29.939Z,17.51
2022-10-05T10:19:30.762Z,17.57
2022-10-05T10:22:43.364Z,17.60
2022-10-05T10:25:49.591Z,17.60
2022-10-05T10:29:02.971Z,17.62
2022-10-05T10:31:59.594Z,17.90
2022-10-05T10:35:21.685Z,17.98
2022-10-05T10:38:28.982Z,18.24
2022-10-05T10:41:44.090Z,18.47
2022-10-05T10:45:31.771Z,18.58
2022-10-05T10:48:28.822Z,18.54
2022-10-05T10:51:44.005Z,18.57
2022-10-05T10:54:56.178Z,18.60
2022-10-05T10:58:19.692Z,18.58
2022-10-05T11:01:52.408Z,18.72
2022-10-05T11:04:55.794Z,18.79
2022-10-05T11:07:52.729Z,19.20
2022-10-05T11:10:59.239Z,19.07
2022-10-05T11:14:21.343Z,19.25
2022-10-05T11:17:23.603Z,19.06
2022-10-05T11:20:44.356Z,18.99
2022-10-05T11:24:00.559Z,19.15
2022-10-05T11:27:33.997Z,19.13
2022-10-05T11:30:48.856Z,19.40
2022-10-05T11:33:53.681Z,19.24
2022-10-05T11:37:03.474Z,19.23
2022-10-05T11:40:38.565Z,19.31
2022-10-05T11:44:07.312Z,19.40
2022-10-05T11:47:19.883Z,19.44
2022-10-05T11:50:35.981Z,19.44
2022-10-05T11:53:48.039Z,19.67
2022-10-05T11:57:13.810Z,19.54
2022-10-05T12:00:15.613Z,19.62
2022-10-05T12:03:48.219Z,19.64
2022-10-05T12:07:04.753Z,19.55
2022-10-05T12:10:29.023Z,19.58
2022-10-05T12:13:40.355Z,19.73
2022-10-05T12:16:46.197Z,19.67
2022-10-05T12:20:05.973Z,20.18
2022-10-05T12:23:40.568Z,20.29
2022-10-05T12:26:44.891Z,20.36
2022-10-05T12:29:49.690Z,20.16
2022-10-05T12:32:55.878Z,20.24
2022-10-05T12:36:03.768Z,20.17
2022-10-05T12:39:05.274Z,20.27
2022-10-05T12:42:15.189Z,20.05
2022-10-05T12:45:18.148Z,19.98
2022-10-05T12:48:22.344Z,20.00
2022-10-05T12:51:23.327Z,20.00
2022-10-05T12:54:24.943Z,19.90
2022-10-05T12:57:34.276Z,20.04
2022-10-05T13:00:37.566Z,20.35
2022-10-05T13:03:38.024Z,20.41
2022-10-05T13:06:53.444Z,20.28
2022-10-05T13:09:53.899Z,20.16
2022-10-05T13:13:36.075Z,20.11
2022-10-05T13:17:31.182Z,20.08
2022-10-05T13:20:30.016Z,20.15
2022-10-05T13:23:45.771Z,20.29
2022-10-05T13:26:48.591Z,20.03
2022-10-05T13:29:54.178Z,20.06
2022-10-05T13:33:00.059Z,20.21
2022-10-05T13:36:26.253Z,20.41
2022-10-05T13:39:55.179Z,20.52
2022-10-05T13:43:20.264Z,20.31
2022-10-05T13:46:35.555Z,20.13
2022-10-05T13:49:44.553Z,20.03
2022-10-05T13:53:06.535Z,20.13
2022-10-05T13:56:12.438Z,20.21
2022-10-05T13:59:25.127Z,20.32
2022-10-05T14:02:29.687Z,20.34
2022-10-05T14:05:28.088Z,20.30
2022-10-05T14:08:29.818Z,20.47
2022-10-05T14:11:34.941Z,20.61
2022-10-05T14:14:32.907Z,20.83
2022-10-05T14:17:42.918Z,20.96
2022-10-05T14:20:39.871Z,20.85
2022-10-05T14:23:38.460Z,20.61
2022-10-05T14:26:36.064Z,20.81
2022-10-05T14:29:37.770Z,21.14
2022-10-05T14:32:55.994Z,21.07
2022-10-05T14:35:54.666Z,21.08
2022-10-05T14:38:55.250Z,21.06
2022-10-05T14:41:53.393Z,20.90
2022-10-05T14:44:59.479Z,20.73
2022-10-05T14:48:01.833Z,20.80
2022-10-05T14:51:03.462Z,20.73
2022-10-05T14:54:02.297Z,20.74
2022-10-05T14:57:18.118Z,20.79
2022-10-05T15:00:19.197Z,20.96
2022-10-05T15:03:18.969Z,21.03
2022-10-05T15:06:26.917Z,21.15
2022-10-05T15:09:33.409Z,21.16
2022-10-05T15:12:32.548Z,21.19
2022-10-05T15:15:37.132Z,21.11
2022-10-05T15:19:02.922Z,21.17
2022-10-05T15:22:06.121Z,21.16
2022-10-05T15:25:17.196Z,21.29
2022-10-05T15:28:24.866Z,21.10
2022-10-05T15:31:47.882Z,20.92
2022-10-05T15:35:24.242Z,20.67
2022-10-05T15:38:25.744Z,20.70
2022-10-05T15:41:40.073Z,20.80
2022-10-05T15:44:52.249Z,20.81
2022-10-05T15:48:17.599Z,21.03
2022-10-05T15:51:21.969Z,20.88
2022-10-05T15:54:41.901Z,20.80
2022-10-05T15:57:51.069Z,20.68
2022-10-05T16:00:51.150Z,20.76
2022-10-05T16:03:49.797Z,20.69
2022-10-05T16:07:27.972Z,20.64
2022-10-05T16:10:25.884Z,20.66
2022-10-05T16:13:34.952Z,20.37
2022-10-05T16:16:37.923Z,20.37
2022-10-05T16:20:19.029Z,20.43
2022-10-05T16:23:33.914Z,20.38
2022-10-05T16:26:51.181Z,20.32
2022-10-05T16:30:00.027Z,20.28
2022-10-05T16:33:14.403Z,20.30
2022-10-05T16:36:40.147Z,20.30
2022-10-05T16:39:57.185Z,20.35
2022-10-05T16:42:57.151Z,20.22
2022-10-05T16:46:14.822Z,20.30
2022-10-05T16:49:37.007Z,20.26
2022-10-05T16:52:34.054Z,20.10
2022-10-05T16:55:48.528Z,20.09
2022-10-05T16:59:11.193Z,19.96
2022-10-05T17:02:25.895Z,20.26
2022-10-05T17:05:30.402Z,20.26
2022-10-05T17:09:05.198Z,20.19
2022-10-05T17:12:14.215Z,20.19
2022-10-05T17:15:19.668Z,20.14
2022-10-05T17:18:54.774Z,20.16
2022-10-05T17:22:23.916Z,20.09
2022-10-05T17:25:39.581Z,20.14
2022-10-05T17:28:38.310Z,20.10
2022-10-05T17:32:00.804Z,20.00
2022-10-05T17:35:00.832Z,20.15
2022-10-05T17:38:22.702Z,20.21
2022-10-05T17:41:30.316Z,20.22
2022-10-05T17:44:27.228Z,20.21
2022-10-05T17:47:58.386Z,20.35
2022-10-05T17:51:13.888Z,20.30
2022-10-05T17:54:39.974Z,20.23
2022-10-05T17:57:37.658Z,20.29
2022-10-05T18:00:40.728Z,20.13
2022-10-05T18:03:43.253Z,20.22
2022-10-05T18:06:52.798Z,20.29
2022-10-05T18:09:54.334Z,20.45
2022-10-05T18:13:18.403Z,20.35
2022-10-05T18:16:53.687Z,20.41
2022-10-05T18:20:28.030Z,20.15
2022-10-05T18:23:26.749Z,20.19
2022-10-05T18:26:32.941Z,20.22
2022-10-05T18:30:02.735Z,20.38
2022-10-05T18:33:23.155Z,20.18
2022-10-05T18:36:40.504Z,20.00
2022-10-05T18:40:01.644Z,19.90
2022-10-05T18:43:22.390Z,19.80
2022-10-05T18:46:26.082Z,19.53
2022-10-05T18:49:42.493Z,19.50
2022-10-05T18:52:55.624Z,19.60
2022-10-05T18:56:20.913Z,19.62
2022-10-05T18:59:37.410Z,19.59
2022-10-05T19:02:39.814Z,19.54
2022-10-05T19:06:04.405Z,19.43
2022-10-05T19:09:17.556Z,19.24
2022-10-05T19:12:35.993Z,19.20
2022-10-05T19:15:46.399Z,19.38
2022-10-05T19:18:47.204Z,19.40
2022-10-05T19:22:03.750Z,19.13
2022-10-05T19:25:20.586Z,19.13
2022-10-05T19:28:34.913Z,19.20
2022-10-05T19:31:50.346Z,19.09
2022-10-05T19:35:46.104Z,19.15
2022-10-05T19:39:03.553Z,19.01
2022-10-05T19:42:41.386Z,19.14
2022-10-05T19:45:43.752Z,19.09
2022-10-05T19:48:45.935Z,19.13
2022-10-05T19:51:50.128Z,19.07
2022-10-05T19:54:49.088Z,19.15
2022-10-05T19:57:53.891Z,19.00
2022-10-05T20:00:56.858Z,19.07
2022-10-05T20:03:54.245Z,18.99
2022-10-05T20:06:51.346Z,19.02
2022-10-05T20:10:18.672Z,19.04
2022-10-05T20:13:22.766Z,19.31
2022-10-05T20:16:46.859Z,19.38
2022-10-05T20:19:56.283Z,19.29
2022-10-05T20:22:53.610Z,19.30
2022-10-05T20:26:10.243Z,19.35
2022-10-05T20:29:09.142Z,19.44
2022-10-05T20:32:12.245Z,19.47
2022-10-05T20:35:09.494Z,19.26
2022-10-05T20:38:06.331Z,19.30
2022-10-05T20:41:03.440Z,19.32
2022-10-05T20:44:00.465Z,19.24
2022-10-05T20:46:58.606Z,19.34
2022-10-05T20:49:56.336Z,19.35
2022-10-05T20:52:53.546Z,19.40
2022-10-05T20:55:50.378Z,19.38
2022-10-05T20:58:47.456Z,19.30
2022-10-05T21:01:48.103Z,19.40
2022-10-05T21:04:47.681Z,19.42
2022-10-05T21:07:45.124Z,19.54
2022-10-05T21:10:42.322Z,19.51
2022-10-05T21:13:45.252Z,19.35
2022-10-05T21:16:43.623Z,19.35
2022-10-05T21:19:41.282Z,19.35
2022-10-05T21:22:38.701Z,19.43
2022-10-05T21:25:36.026Z,19.40
2022-10-05T21:28:34.100Z,19.36
2022-10-05T21:31:31.395Z,19.31
2022-10-05T21:34:28.795Z,19.30
2022-10-05T21:37:26.202Z,19.31
2022-10-05T21:40:24.032Z,19.33
2022-10-05T21:43:21.060Z,19.32
2022-10-05T21:46:20.707Z,19.37
2022-10-05T21:49:19.823Z,19.42
2022-10-05T21:52:17.758Z,19.32
2022-10-05T21:55:16.063Z,19.35
2022-10-05T21:58:13.070Z,19.27
2022-10-05T22:01:11.005Z,19.29
2022-10-05T22:04:08.211Z,19.15
2022-10-05T22:07:23.634Z,18.40
2022-10-05T22:10:20.565Z,18.07
2022-10-05T22:13:17.762Z,17.49
2022-10-05T22:16:15.797Z,17.39
2022-10-05T22:19:14.743Z,17.34
2022-10-05T22:22:12.673Z,17.22
2022-10-05T22:25:09.567Z,17.12
2022-10-05T22:28:06.750Z,17.12
2022-10-05T22:31:04.983Z,17.19
2022-10-05T22:34:02.116Z,17.21
2022-10-05T22:36:59.508Z,17.10
2022-10-05T22:39:56.695Z,16.99
2022-10-05T22:42:53.971Z,16.93
2022-10-05T22:45:51.818Z,16.96
2022-10-05T22:48:49.725Z,16.88
2022-10-05T22:51:46.329Z,16.74
2022-10-05T22:54:43.523Z,16.64
2022-10-05T22:57:40.745Z,16.67
2022-10-05T23:00:57.094Z,16.74
2022-10-05T23:03:57.261Z,16.79
2022-10-05T23:06:54.287Z,16.90
2022-10-05T23:09:51.303Z,16.88
2022-10-05T23:12:59.685Z,16.71
2022-10-05T23:15:58.369Z,16.73
2022-10-05T23:18:56.015Z,16.96
2022-10-05T23:21:53.453Z,16.95
2022-10-05T23:24:50.740Z,16.93
2022-10-05T23:27:48.697Z,16.87
2022-10-05T23:30:45.726Z,16.98
2022-10-05T23:33:43.436Z,17.06
2022-10-05T23:36:40.790Z,17.10
2022-10-05T23:39:38.580Z,17.00
2022-10-05T23:42:35.534Z,16.97
2022-10-05T23:45:32.426Z,17.04
2022-10-05T23:48:30.624Z,17.10
2022-10-05T23:51:28.205Z,17.15
2022-10-05T23:54:25.107Z,17.10
2022-10-05T23:57:22.665Z,16.99
